Time;durP1;ratioP1;P1;durP2;ratioP2;P2;SDS_P1;SDS_P2;PMS_P1;PMS_P2;Temp;Humidity;BMP_temperature;BMP_pressure;BME280_temperature;BME280_humidity;BME280_pressure;Samples;Min_cycle;Max_cycle;Signal;HPM_P1;HPM_P2
2021/04/01 00:00:27;;;;;;;9.57;7.43;;;10.70;1.00;;;;;;5017557;28;20492;-47
2021/04/01 00:02:57;;;;;;;9.27;8.33;;;10.60;1.00;;;;;;5012821;28;20526;-46
2021/04/01 00:05:27;;;;;;;12.73;7.70;;;10.60;1.00;;;;;;5007289;28;20806;-44
2021/04/01 00:07:54;;;;;;;9.23;7.80;;;10.60;1.00;;;;;;5017165;28;20459;-44
2021/04/01 00:10:29;;;;;;;10.93;7.40;;;10.50;1.00;;;;;;5016487;28;20470;-44
2021/04/01 00:12:58;;;;;;;9.77;7.97;;;10.40;1.00;;;;;;5014254;28;20465;-44
2021/04/01 00:15:26;;;;;;;9.10;8.00;;;10.40;1.00;;;;;;5017196;28;20464;-45
2021/04/01 00:17:56;;;;;;;10.37;8.43;;;10.40;1.00;;;;;;5018292;28;20472;-44
2021/04/01 00:20:23;;;;;;;11.97;8.90;;;10.40;1.00;;;;;;5016812;28;20503;-44
2021/04/01 00:22:49;;;;;;;12.27;7.83;;;10.40;1.00;;;;;;5007178;28;21718;-47
2021/04/01 00:25:18;;;;;;;16.07;8.77;;;10.30;1.00;;;;;;5017781;28;20495;-44
2021/04/01 00:27:46;;;;;;;13.73;8.60;;;10.30;1.00;;;;;;5017856;28;20456;-44
2021/04/01 00:30:13;;;;;;;11.97;8.40;;;10.30;1.00;;;;;;5019102;28;20990;-45
2021/04/01 00:32:41;;;;;;;12.10;9.60;;;10.30;1.00;;;;;;5016750;28;20763;-45
2021/04/01 00:35:09;;;;;;;14.00;8.37;;;10.30;1.00;;;;;;5001771;28;20753;-44
2021/04/01 00:37:35;;;;;;;10.23;8.40;;;10.20;1.00;;;;;;5017501;28;20772;-45
2021/04/01 00:40:04;;;;;;;12.10;8.77;;;10.20;1.00;;;;;;5010551;28;20467;-43
2021/04/01 00:42:31;;;;;;;11.90;8.40;;;10.20;1.00;;;;;;5018197;28;20468;-44
2021/04/01 00:45:01;;;;;;;14.53;8.47;;;10.10;1.00;;;;;;5016874;28;20472;-44
2021/04/01 00:47:33;;;;;;;12.50;8.30;;;10.10;1.00;;;;;;5017731;28;20491;-44
2021/04/01 00:50:05;;;;;;;8.63;7.83;;;10.10;1.00;;;;;;5017985;28;20888;-44
2021/04/01 00:52:35;;;;;;;15.30;9.10;;;10.10;1.00;;;;;;5017213;28;20476;-44
2021/04/01 00:55:02;;;;;;;13.73;8.80;;;10.10;1.00;;;;;;5018189;28;20521;-48
2021/04/01 00:57:29;;;;;;;10.03;8.93;;;10.10;1.00;;;;;;5017369;28;20472;-44
2021/04/01 00:59:56;;;;;;;10.10;8.43;;;10.10;1.00;;;;;;5016983;28;20475;-44
2021/04/01 01:02:23;;;;;;;10.07;8.10;;;10.10;1.00;;;;;;5018438;28;21151;-44
2021/04/01 01:04:51;;;;;;;13.97;9.43;;;10.10;1.00;;;;;;5016303;28;20476;-48
2021/04/01 01:07:24;;;;;;;11.67;9.50;;;10.10;1.00;;;;;;5004191;28;20798;-45
2021/04/01 01:09:50;;;;;;;12.40;9.10;;;10.20;1.00;;;;;;5006811;28;20469;-44
2021/04/01 01:12:17;;;;;;;14.40;9.97;;;10.10;1.00;;;;;;5013819;28;20464;-44
2021/04/01 01:14:43;;;;;;;14.83;9.03;;;10.20;1.00;;;;;;5017322;28;20506;-43
2021/04/01 01:17:10;;;;;;;9.13;8.10;;;10.20;1.00;;;;;;5013040;28;20467;-46
2021/04/01 01:19:38;;;;;;;14.83;9.07;;;10.20;1.00;;;;;;5016012;28;20468;-44
2021/04/01 01:22:06;;;;;;;10.10;9.10;;;10.20;1.00;;;;;;5016642;28;20569;-46
2021/04/01 01:24:36;;;;;;;10.90;8.67;;;10.20;1.00;;;;;;5016457;28;20815;-50
2021/04/01 01:27:04;;;;;;;13.00;8.80;;;10.10;1.00;;;;;;5015876;28;20456;-44
2021/04/01 01:29:31;;;;;;;11.47;9.30;;;10.00;1.00;;;;;;5017425;28;20464;-48
2021/04/01 01:31:58;;;;;;;11.70;8.83;;;9.90;1.00;;;;;;5016454;28;20762;-44
2021/04/01 01:34:27;;;;;;;10.50;8.93;;;9.80;1.00;;;;;;5016181;28;20471;-45
2021/04/01 01:36:53;;;;;;;10.50;9.40;;;9.80;1.00;;;;;;5016399;28;20841;-44
2021/04/01 01:39:57;;;;;;;9.50;8.43;;;9.90;1.00;;;;;;5016033;28;20806;-45
2021/04/01 01:42:25;;;;;;;10.40;8.77;;;9.90;1.00;;;;;;5014576;28;20499;-44
2021/04/01 01:44:52;;;;;;;9.80;8.77;;;9.90;1.00;;;;;;5016904;28;20771;-44
2021/04/01 01:47:18;;;;;;;10.10;8.83;;;9.80;1.00;;;;;;5014956;28;20475;-44
2021/04/01 01:49:45;;;;;;;10.53;8.93;;;9.80;1.00;;;;;;5017023;28;20478;-44
2021/04/01 01:52:11;;;;;;;10.00;8.60;;;9.80;1.00;;;;;;5016222;28;20474;-45
2021/04/01 01:54:38;;;;;;;12.83;9.30;;;9.80;1.00;;;;;;5015841;28;21283;-44
2021/04/01 01:57:06;;;;;;;10.33;9.33;;;9.70;1.00;;;;;;5016318;28;20468;-48
2021/04/01 01:59:33;;;;;;;10.20;9.10;;;9.80;1.00;;;;;;5014734;28;20482;-45
2021/04/01 02:02:02;;;;;;;12.20;9.70;;;9.80;1.00;;;;;;5017717;28;20500;-46
2021/04/01 02:04:28;;;;;;;9.33;8.37;;;9.80;1.00;;;;;;5006775;28;20918;-44
2021/04/01 02:06:55;;;;;;;10.97;9.20;;;9.70;1.00;;;;;;5008230;28;20555;-45
2021/04/01 02:09:28;;;;;;;10.80;9.60;;;9.70;1.00;;;;;;5016735;28;20512;-44
2021/04/01 02:11:57;;;;;;;9.97;8.97;;;9.70;1.00;;;;;;5015632;28;20467;-44
2021/04/01 02:14:25;;;;;;;10.67;9.67;;;9.60;1.00;;;;;;5016116;28;20503;-45
2021/04/01 02:16:51;;;;;;;14.43;10.97;;;9.70;1.00;;;;;;5018480;28;20475;-44
2021/04/01 02:19:18;;;;;;;13.37;10.27;;;9.70;1.00;;;;;;5019686;28;20464;-45
2021/04/01 02:21:44;;;;;;;11.93;10.20;;;9.70;1.00;;;;;;5017732;28;20970;-44
2021/04/01 02:24:11;;;;;;;17.50;9.30;;;9.70;1.00;;;;;;5018899;28;20502;-44
2021/04/01 02:26:47;;;;;;;10.97;9.37;;;9.60;1.00;;;;;;5020636;28;20471;-44
2021/04/01 02:29:13;;;;;;;12.83;10.67;;;9.60;1.00;;;;;;5019590;28;20828;-44
2021/04/01 02:31:45;;;;;;;14.77;10.57;;;9.50;1.00;;;;;;5019675;28;20464;-44
2021/04/01 02:34:12;;;;;;;14.77;9.13;;;9.50;1.00;;;;;;5020261;28;20468;-45
2021/04/01 02:36:38;;;;;;;11.90;9.67;;;9.50;1.00;;;;;;5019215;28;20892;-43
2021/04/01 02:39:05;;;;;;;10.57;8.83;;;9.40;1.00;;;;;;5020011;28;20471;-45
2021/04/01 02:41:32;;;;;;;12.03;10.17;;;9.40;1.00;;;;;;5019333;28;20923;-45
2021/04/01 02:43:58;;;;;;;12.90;9.17;;;9.40;1.00;;;;;;5019105;28;20460;-44
2021/04/01 02:46:25;;;;;;;10.97;9.63;;;9.30;1.00;;;;;;5019289;28;20467;-44
2021/04/01 02:48:52;;;;;;;10.70;9.27;;;9.30;1.00;;;;;;5019554;28;20529;-45
2021/04/01 02:51:19;;;;;;;12.90;10.27;;;9.30;1.00;;;;;;5019073;28;20896;-45
2021/04/01 02:53:45;;;;;;;12.33;9.70;;;9.30;1.00;;;;;;5020276;28;20479;-45
2021/04/01 02:56:12;;;;;;;11.03;9.27;;;9.30;1.00;;;;;;5019253;28;20467;-44
2021/04/01 02:58:38;;;;;;;14.17;10.30;;;9.20;1.00;;;;;;5012440;28;20778;-44
2021/04/01 03:01:05;;;;;;;16.90;10.03;;;9.20;1.00;;;;;;5019897;28;20495;-47
2021/04/01 03:03:34;;;;;;;11.30;10.20;;;9.20;1.00;;;;;;5011789;28;21046;-44
2021/04/01 03:06:02;;;;;;;13.40;9.80;;;9.20;1.00;;;;;;5017330;28;20482;-44
2021/04/01 03:08:28;;;;;;;12.50;9.63;;;9.20;1.00;;;;;;5019471;28;20511;-44
2021/04/01 03:10:55;;;;;;;12.17;9.60;;;9.30;1.00;;;;;;5019223;28;20754;-44
2021/04/01 03:13:22;;;;;;;10.90;9.17;;;9.20;1.00;;;;;;5019489;28;20471;-45
2021/04/01 03:15:52;;;;;;;11.27;10.07;;;9.20;1.00;;;;;;5019131;28;20472;-44
2021/04/01 03:18:19;;;;;;;13.40;10.07;;;9.30;1.00;;;;;;5018846;28;20474;-47
2021/04/01 03:20:46;;;;;;;16.20;10.90;;;9.30;1.00;;;;;;5019143;28;20495;-45
2021/04/01 03:23:14;;;;;;;13.17;10.47;;;9.30;1.00;;;;;;5016766;28;20454;-44
2021/04/01 03:25:41;;;;;;;11.47;10.37;;;9.30;1.00;;;;;;5018348;28;20491;-45
2021/04/01 03:28:08;;;;;;;13.63;10.43;;;9.30;1.00;;;;;;5016767;28;20471;-49
2021/04/01 03:30:36;;;;;;;12.60;11.20;;;9.30;1.00;;;;;;5018306;28;20892;-50
2021/04/01 03:33:04;;;;;;;15.33;11.50;;;9.30;1.00;;;;;;5018997;28;20471;-44
2021/04/01 03:35:30;;;;;;;13.33;11.00;;;9.30;1.00;;;;;;5017491;28;20551;-44
2021/04/01 03:37:59;;;;;;;13.03;11.47;;;9.30;1.00;;;;;;5019618;28;20494;-44
2021/04/01 03:40:26;;;;;;;14.50;11.60;;;9.40;1.00;;;;;;5018958;28;20467;-45
2021/04/01 03:42:53;;;;;;;13.90;11.40;;;9.40;1.00;;;;;;5018317;28;20823;-45
2021/04/01 03:45:20;;;;;;;17.80;11.17;;;9.40;1.00;;;;;;5018659;28;20463;-52
2021/04/01 03:47:47;;;;;;;19.60;13.10;;;9.50;1.00;;;;;;5019266;28;20503;-44
2021/04/01 03:50:15;;;;;;;14.23;11.27;;;9.60;1.00;;;;;;5017555;28;20487;-44
2021/04/01 03:52:43;;;;;;;15.10;11.93;;;9.60;1.00;;;;;;5017384;28;20522;-44
2021/04/01 03:55:20;;;;;;;19.13;11.40;;;9.60;1.00;;;;;;5018363;28;20468;-46
2021/04/01 03:57:49;;;;;;;16.03;12.03;;;9.60;1.00;;;;;;5019252;28;20475;-45
2021/04/01 04:00:22;;;;;;;13.03;11.60;;;9.60;1.00;;;;;;5018912;28;20534;-44
2021/04/01 04:02:56;;;;;;;14.13;11.13;;;9.60;1.00;;;;;;5013926;28;20564;-44
2021/04/01 04:05:39;;;;;;;11.93;10.37;;;9.70;1.00;;;;;;5007211;28;20468;-44
2021/04/01 04:08:34;;;;;;;11.93;10.10;;;9.70;1.00;;;;;;5016020;28;20463;-45
2021/04/01 04:11:16;;;;;;;13.30;11.03;;;9.70;1.00;;;;;;5010800;28;20467;-44
2021/04/01 04:13:48;;;;;;;19.70;10.70;;;9.70;1.00;;;;;;5018244;28;20471;-45
2021/04/01 04:16:17;;;;;;;13.07;10.83;;;9.70;1.00;;;;;;5018385;28;20475;-44
2021/04/01 04:18:45;;;;;;;14.50;11.40;;;9.60;1.00;;;;;;5018982;28;20908;-44
2021/04/01 04:21:12;;;;;;;12.47;11.17;;;9.50;1.00;;;;;;5017095;28;20500;-48
2021/04/01 04:23:42;;;;;;;14.97;11.23;;;9.50;1.00;;;;;;5017832;28;20927;-44
2021/04/01 04:26:09;;;;;;;15.50;12.27;;;9.50;1.00;;;;;;5018814;28;20460;-48
2021/04/01 04:28:39;;;;;;;25.53;12.23;;;9.40;1.00;;;;;;5018098;28;20768;-44
2021/04/01 04:31:07;;;;;;;13.53;11.53;;;9.40;1.00;;;;;;5018240;28;20479;-44
2021/04/01 04:33:34;;;;;;;15.93;11.83;;;9.40;1.00;;;;;;5018200;28;20522;-45
2021/04/01 04:36:00;;;;;;;16.90;11.93;;;9.40;1.00;;;;;;5018134;28;20438;-45
2021/04/01 04:38:28;;;;;;;15.30;12.50;;;9.40;1.00;;;;;;5014073;28;20494;-45
2021/04/01 04:40:56;;;;;;;13.20;11.60;;;9.40;1.00;;;;;;5015483;28;20495;-45
2021/04/01 04:43:23;;;;;;;16.80;10.23;;;9.40;1.00;;;;;;5017584;28;20992;-45
2021/04/01 04:45:50;;;;;;;11.37;10.20;;;9.40;1.00;;;;;;5016483;28;20468;-46
2021/04/01 04:48:18;;;;;;;15.77;10.23;;;9.50;1.00;;;;;;5008541;28;20468;-44
2021/04/01 04:50:45;;;;;;;15.53;10.87;;;9.50;1.00;;;;;;5017898;28;20468;-44
2021/04/01 04:53:13;;;;;;;13.90;11.23;;;9.40;1.00;;;;;;5018589;28;20556;-44
2021/04/01 04:55:41;;;;;;;15.50;12.43;;;9.40;1.00;;;;;;5017519;28;20881;-44
2021/04/01 04:58:11;;;;;;;14.87;12.10;;;9.40;1.00;;;;;;5018176;28;20468;-44
2021/04/01 05:00:55;;;;;;;11.73;10.63;;;9.40;1.00;;;;;;5017989;28;20885;-44
2021/04/01 05:06:07;;;;;;;21.97;11.63;;;9.50;1.00;;;;;;5016375;28;20551;-44
2021/04/01 05:08:34;;;;;;;17.00;12.23;;;9.50;1.00;;;;;;5016735;28;20468;-45
2021/04/01 05:11:00;;;;;;;13.87;11.50;;;9.50;1.00;;;;;;5018479;28;20459;-44
2021/04/01 05:13:29;;;;;;;17.97;12.50;;;9.50;1.00;;;;;;5017563;28;20467;-44
2021/04/01 05:15:56;;;;;;;17.60;12.03;;;9.50;1.00;;;;;;5017707;28;20475;-45
2021/04/01 05:18:25;;;;;;;20.10;13.00;;;9.50;1.00;;;;;;5018771;28;20467;-44
2021/04/01 05:20:53;;;;;;;14.63;11.60;;;9.40;1.00;;;;;;5018254;28;20491;-46
2021/04/01 05:23:30;;;;;;;23.47;12.60;;;9.40;1.00;;;;;;5017027;28;20518;-45
2021/04/01 05:26:20;;;;;;;23.50;15.63;;;9.40;1.00;;;;;;5017138;28;20467;-46
2021/04/01 05:28:49;;;;;;;49.80;37.50;;;9.40;1.00;;;;;;5017525;28;20752;-44
2021/04/01 05:31:18;;;;;;;86.03;63.87;;;9.40;1.00;;;;;;5017944;28;20562;-44
2021/04/01 05:33:47;;;;;;;48.80;34.63;;;9.40;1.00;;;;;;5014746;28;20781;-44
2021/04/01 05:36:18;;;;;;;32.27;26.43;;;9.40;1.00;;;;;;5016245;28;20809;-45
2021/04/01 05:38:45;;;;;;;29.93;21.57;;;9.40;1.00;;;;;;5015068;28;20438;-46
2021/04/01 05:41:12;;;;;;;22.57;17.70;;;9.40;1.00;;;;;;5007278;28;20594;-44
2021/04/01 05:43:46;;;;;;;27.07;19.57;;;9.30;1.00;;;;;;5012832;28;20527;-44
2021/04/01 05:46:17;;;;;;;18.53;15.30;;;9.30;1.00;;;;;;5004680;28;20475;-46
2021/04/01 05:48:59;;;;;;;20.73;15.20;;;9.30;1.00;;;;;;5015301;28;20446;-45
2021/04/01 05:51:55;;;;;;;15.70;13.83;;;9.30;1.00;;;;;;5000476;28;20735;-45
2021/04/01 06:03:01;;;;;;;20.97;15.00;;;9.40;1.00;;;;;;5013305;28;20492;-45
2021/04/01 06:05:36;;;;;;;19.50;13.87;;;9.40;1.00;;;;;;5006137;28;20558;-44
2021/04/01 06:08:08;;;;;;;15.77;13.90;;;9.40;1.00;;;;;;5011454;28;20561;-45
2021/04/01 06:10:36;;;;;;;21.47;13.83;;;9.50;1.00;;;;;;4999457;28;20917;-48
2021/04/01 06:13:09;;;;;;;22.00;15.07;;;9.50;1.00;;;;;;5014053;28;20952;-48
2021/04/01 06:15:36;;;;;;;15.70;14.10;;;9.50;1.00;;;;;;5017238;28;20468;-45
2021/04/01 06:18:10;;;;;;;15.90;13.33;;;9.50;1.00;;;;;;5017106;28;20467;-45
2021/04/01 06:20:42;;;;;;;18.13;13.77;;;9.60;1.00;;;;;;5015492;28;20519;-44
2021/04/01 06:23:11;;;;;;;16.47;13.80;;;9.60;1.00;;;;;;5004147;28;20530;-44
2021/04/01 06:25:39;;;;;;;16.90;13.03;;;9.70;1.00;;;;;;5015954;28;20504;-45
2021/04/01 06:28:11;;;;;;;17.10;13.07;;;9.70;1.00;;;;;;5016926;28;20466;-45
2021/04/01 06:30:48;;;;;;;17.63;13.13;;;9.80;1.00;;;;;;5004670;28;20490;-45
2021/04/01 06:33:17;;;;;;;16.17;13.40;;;9.90;1.00;;;;;;5015613;28;20468;-45
2021/04/01 06:35:51;;;;;;;20.67;14.77;;;10.00;1.00;;;;;;5017067;28;20460;-44
2021/04/01 06:38:26;;;;;;;25.23;13.40;;;10.20;1.00;;;;;;5015039;28;20497;-48
2021/04/01 06:40:58;;;;;;;17.43;13.87;;;10.40;1.00;;;;;;5011326;28;20526;-45
2021/04/01 06:43:49;;;;;;;19.30;15.27;;;10.70;1.00;;;;;;5016402;28;20507;-45
2021/04/01 06:46:20;;;;;;;17.70;13.97;;;11.10;1.00;;;;;;5015370;28;20539;-45
2021/04/01 06:51:49;;;;;;;20.30;16.13;;;11.80;1.00;;;;;;5015914;28;20443;-48
2021/04/01 06:54:23;;;;;;;22.97;15.17;;;12.20;1.00;;;;;;5006905;28;21036;-45
2021/04/01 06:56:54;;;;;;;24.67;15.07;;;12.50;1.00;;;;;;5016106;28;20475;-51
2021/04/01 06:59:37;;;;;;;20.17;14.70;;;12.80;1.00;;;;;;5016828;28;20735;-45
2021/04/01 07:02:14;;;;;;;18.03;14.87;;;13.10;1.00;;;;;;5014906;28;20558;-45
2021/04/01 07:04:41;;;;;;;20.63;15.67;;;13.40;1.00;;;;;;5006298;28;20470;-45
2021/04/01 07:07:14;;;;;;;19.33;14.83;;;13.60;1.00;;;;;;5017370;28;20558;-45
2021/04/01 07:09:52;;;;;;;20.37;15.90;;;13.70;1.00;;;;;;5017357;28;20538;-46
2021/04/01 07:12:22;;;;;;;21.63;17.23;;;13.90;1.00;;;;;;5020173;28;20463;-45
2021/04/01 07:14:53;;;;;;;24.07;15.80;;;14.20;1.00;;;;;;5012344;28;20460;-46
2021/04/01 07:17:25;;;;;;;20.37;16.40;;;14.70;1.00;;;;;;5020351;28;20478;-47
2021/04/01 07:23:14;;;;;;;20.20;16.80;;;15.40;1.00;;;;;;4946148;29;20808;-45
2021/04/01 07:32:01;;;;;;;22.43;15.13;;;16.40;99.90;;;;;;5019854;28;20795;-46
2021/04/01 07:48:40;;;;;;;30.30;21.70;;;18.20;99.90;;;;;;5019639;28;20434;-46
2021/04/01 07:51:10;;;;;;;28.47;23.27;;;18.30;99.90;;;;;;5018558;28;20459;-47
2021/04/01 07:53:37;;;;;;;29.97;21.73;;;18.50;99.90;;;;;;5019143;28;20506;-48
2021/04/01 07:56:10;;;;;;;24.77;22.07;;;18.80;99.90;;;;;;5019100;28;20475;-49
2021/04/01 08:01:47;;;;;;;28.60;23.33;;;19.40;99.90;;;;;;4983034;28;20967;-44
2021/04/01 08:04:15;;;;;;;29.10;23.60;;;19.80;99.90;;;;;;5006365;28;20460;-46
2021/04/01 08:06:43;;;;;;;27.70;23.33;;;19.80;99.90;;;;;;5007980;28;20502;-45
2021/04/01 08:09:13;;;;;;;29.17;25.93;;;19.90;99.90;;;;;;5015823;28;20468;-50
2021/04/01 08:11:46;;;;;;;30.90;24.03;;;20.10;99.90;;;;;;5019018;28;20465;-44
2021/04/01 08:14:16;;;;;;;37.90;25.20;;;20.20;99.90;;;;;;5016686;28;20463;-46
2021/04/01 08:16:52;;;;;;;30.67;25.57;;;20.50;99.90;;;;;;5019402;28;20491;-46
2021/04/01 08:19:20;;;;;;;31.30;26.43;;;20.90;99.90;;;;;;5017963;28;20527;-45
2021/04/01 08:21:50;;;;;;;41.50;27.30;;;21.30;99.90;;;;;;5019035;28;20491;-46
2021/04/01 08:24:21;;;;;;;39.10;29.30;;;21.60;99.90;;;;;;5017627;28;20500;-45
2021/04/01 08:27:11;;;;;;;36.60;27.53;;;21.70;99.90;;;;;;5018137;28;20472;-46
2021/04/01 08:35:27;;;;;;;47.67;31.93;;;22.00;99.90;;;;;;4980077;28;20574;-45
2021/04/01 08:38:13;;;;;;;54.93;35.40;;;22.00;99.90;;;;;;5014248;28;20526;-45
2021/04/01 08:40:42;;;;;;;54.60;37.43;;;22.10;99.90;;;;;;5016006;28;20497;-45
2021/04/01 08:43:49;;;;;;;61.70;38.17;;;21.90;99.90;;;;;;5018653;28;20495;-45
2021/04/01 08:46:49;;;;;;;58.83;38.13;;;22.20;99.90;;;;;;5017540;28;20464;-45
2021/04/01 08:49:27;;;;;;;57.30;36.50;;;22.00;99.90;;;;;;4969493;28;20538;-45
2021/04/01 08:52:14;;;;;;;57.30;36.47;;;21.90;99.90;;;;;;5017040;28;20558;-46
2021/04/01 08:54:43;;;;;;;58.40;37.27;;;22.00;99.90;;;;;;5016191;28;20511;-49
2021/04/01 08:57:12;;;;;;;60.50;39.20;;;22.50;99.90;;;;;;5017625;28;20912;-47
2021/04/01 08:59:59;;;;;;;60.47;37.97;;;22.90;99.90;;;;;;5016959;28;20463;-50
2021/04/01 09:02:27;;;;;;;56.67;40.40;;;23.40;99.90;;;;;;5000269;28;20829;-48
2021/04/01 09:04:57;;;;;;;66.70;41.80;;;23.70;99.90;;;;;;5008677;28;20533;-48
2021/04/01 09:07:27;;;;;;;55.30;39.43;;;23.90;99.90;;;;;;5017016;28;20470;-45
2021/04/01 09:10:02;;;;;;;59.77;40.30;;;23.90;99.90;;;;;;5017668;28;20479;-45
2021/04/01 09:12:33;;;;;;;59.67;40.87;;;24.00;99.90;;;;;;5017151;28;20560;-45
2021/04/01 09:15:02;;;;;;;61.27;41.97;;;24.20;99.90;;;;;;5016999;28;20475;-48
2021/04/01 09:17:31;;;;;;;57.00;40.97;;;24.40;99.90;;;;;;5016435;28;20539;-45
2021/04/01 09:19:58;;;;;;;57.60;40.60;;;24.40;99.90;;;;;;5015840;28;20468;-45
2021/04/01 09:22:31;;;;;;;61.30;40.90;;;24.30;99.90;;;;;;5017659;28;20488;-45
2021/04/01 09:24:58;;;;;;;57.17;39.53;;;24.00;99.90;;;;;;5016858;28;20634;-45
2021/04/01 09:27:28;;;;;;;58.07;42.87;;;23.90;99.90;;;;;;5016296;28;20464;-45
2021/04/01 09:30:04;;;;;;;57.30;38.37;;;23.90;99.90;;;;;;5017713;28;20468;-46
2021/04/01 09:32:31;;;;;;;53.03;38.53;;;23.60;99.90;;;;;;5016586;28;20470;-46
2021/04/01 09:35:01;;;;;;;56.70;40.27;;;24.00;99.90;;;;;;5018048;28;20900;-45
2021/04/01 09:37:28;;;;;;;55.07;40.57;;;24.70;99.90;;;;;;5016588;28;20468;-47
2021/04/01 09:39:55;;;;;;;59.23;39.30;;;25.10;99.90;;;;;;5016431;28;20559;-45
2021/04/01 09:42:22;;;;;;;57.57;37.33;;;25.30;99.90;;;;;;5017185;28;21010;-46
2021/04/01 09:44:51;;;;;;;53.97;36.03;;;25.00;99.90;;;;;;5016425;28;20485;-48
2021/04/01 09:47:35;;;;;;;53.27;37.00;;;24.60;99.90;;;;;;5017549;28;20558;-45
2021/04/01 09:50:05;;;;;;;55.27;37.63;;;24.60;99.90;;;;;;5016987;28;20598;-45
2021/04/01 09:52:32;;;;;;;53.10;36.87;;;24.20;99.90;;;;;;5015753;28;20464;-46
2021/04/01 09:55:00;;;;;;;50.37;37.03;;;23.80;99.90;;;;;;5015734;28;20918;-47
2021/04/01 09:57:40;;;;;;;51.83;37.23;;;23.60;99.90;;;;;;5015489;28;20471;-52
2021/04/01 10:00:18;;;;;;;52.57;38.30;;;23.70;99.90;;;;;;5014346;28;20463;-46
2021/04/01 10:02:59;;;;;;;50.47;35.20;;;23.40;99.90;;;;;;5011641;28;20495;-45
2021/04/01 10:05:27;;;;;;;58.67;38.63;;;24.20;99.90;;;;;;5012460;28;20867;-43
2021/04/01 10:07:57;;;;;;;63.03;39.53;;;24.50;99.90;;;;;;5015738;28;20479;-43
2021/04/01 10:10:42;;;;;;;62.90;39.70;;;24.70;99.90;;;;;;5015173;28;20567;-43
2021/04/01 10:13:20;;;;;;;55.30;37.33;;;24.10;99.90;;;;;;5014269;28;20461;-43
2021/04/01 10:15:47;;;;;;;55.50;37.73;;;24.00;99.90;;;;;;5015792;28;20454;-43
2021/04/01 10:18:28;;;;;;;57.47;38.17;;;24.40;99.90;;;;;;5014403;28;20489;-43
2021/04/01 10:21:09;;;;;;;52.03;36.00;;;24.60;99.90;;;;;;5013842;28;20467;-47
2021/04/01 10:23:43;;;;;;;61.10;40.47;;;25.50;99.90;;;;;;5014404;28;20459;-45
2021/04/01 10:26:11;;;;;;;53.57;37.43;;;25.80;99.90;;;;;;5013319;28;20600;-43
2021/04/01 10:28:43;;;;;;;49.43;32.73;;;25.30;99.90;;;;;;5013808;28;20742;-45
2021/04/01 10:31:19;;;;;;;51.23;34.47;;;25.10;99.90;;;;;;5011765;28;20518;-43
2021/04/01 10:34:19;;;;;;;53.57;37.80;;;25.80;99.90;;;;;;5014604;28;20557;-46
2021/04/01 10:36:49;;;;;;;48.87;32.43;;;25.90;99.90;;;;;;5009976;28;20787;-47
2021/04/01 10:39:18;;;;;;;47.27;31.20;;;25.70;99.90;;;;;;5018670;28;20511;-43
2021/04/01 10:41:47;;;;;;;45.67;32.03;;;25.50;99.90;;;;;;5018706;28;20794;-47
2021/04/01 10:44:15;;;;;;;45.70;31.30;;;25.50;99.90;;;;;;5016920;28;20464;-47
2021/04/01 10:46:48;;;;;;;43.50;31.33;;;25.90;99.90;;;;;;5017646;28;20464;-44
2021/04/01 10:49:16;;;;;;;40.33;30.40;;;25.50;99.90;;;;;;5016711;28;20459;-47
2021/04/01 10:51:50;;;;;;;42.07;28.77;;;25.80;99.90;;;;;;5014913;28;20904;-43
2021/04/01 10:54:17;;;;;;;46.27;31.17;;;25.50;99.90;;;;;;5017572;28;20795;-45
2021/04/01 10:56:53;;;;;;;49.57;28.83;;;25.70;99.90;;;;;;5019057;28;20463;-46
2021/04/01 10:59:42;;;;;;;42.57;31.20;;;25.70;99.90;;;;;;5016160;28;20499;-43
2021/04/01 11:02:19;;;;;;;44.73;31.00;;;25.50;99.90;;;;;;5016908;28;20514;-44
2021/04/01 11:05:04;;;;;;;51.20;32.97;;;25.40;99.90;;;;;;5007974;28;20478;-43
2021/04/01 11:07:35;;;;;;;48.33;32.87;;;25.20;99.90;;;;;;5013942;28;20522;-46
2021/04/01 11:10:04;;;;;;;53.03;33.33;;;25.50;99.90;;;;;;5015710;28;20550;-43
2021/04/01 11:12:33;;;;;;;47.87;33.83;;;25.50;99.90;;;;;;5016899;28;20460;-43
2021/04/01 11:15:05;;;;;;;49.17;34.40;;;25.30;99.90;;;;;;5017703;28;20468;-45
2021/04/01 11:17:39;;;;;;;51.23;35.80;;;25.40;99.90;;;;;;5018439;28;20915;-43
2021/04/01 11:20:07;;;;;;;45.07;33.57;;;25.70;99.90;;;;;;5019538;28;20463;-46
2021/04/01 11:22:34;;;;;;;53.70;35.53;;;25.40;99.90;;;;;;5017348;28;20483;-47
2021/04/01 11:25:14;;;;;;;47.30;33.23;;;24.90;99.90;;;;;;5019426;28;20487;-45
2021/04/01 11:27:51;;;;;;;49.80;34.77;;;24.70;99.90;;;;;;5019080;28;20517;-48
2021/04/01 11:30:21;;;;;;;55.17;33.83;;;25.20;99.90;;;;;;5020045;28;20550;-52
2021/04/01 11:32:53;;;;;;;48.70;32.57;;;25.40;99.90;;;;;;5020262;28;20487;-47
2021/04/01 11:35:22;;;;;;;47.83;31.70;;;25.20;99.90;;;;;;5019511;28;20487;-48
2021/04/01 11:37:51;;;;;;;48.57;31.63;;;24.60;99.90;;;;;;5019964;28;20472;-50
2021/04/01 11:40:21;;;;;;;50.30;35.10;;;24.50;99.90;;;;;;5019339;28;20500;-50
2021/04/01 11:42:54;;;;;;;43.37;30.93;;;25.30;99.90;;;;;;5018958;28;20502;-49
2021/04/01 11:45:31;;;;;;;44.97;31.77;;;25.30;99.90;;;;;;5011696;28;20891;-47
2021/04/01 11:47:59;;;;;;;47.57;32.93;;;25.50;99.90;;;;;;5019081;28;20463;-48
2021/04/01 11:50:27;;;;;;;49.53;33.80;;;25.20;99.90;;;;;;5018994;28;20907;-44
2021/04/01 11:53:00;;;;;;;45.40;30.13;;;25.20;99.90;;;;;;5019002;28;20467;-44
2021/04/01 11:55:28;;;;;;;56.47;34.90;;;25.30;99.90;;;;;;5018746;28;20464;-45
2021/04/01 11:57:59;;;;;;;51.87;33.33;;;25.30;99.90;;;;;;5018815;28;20468;-45
2021/04/01 12:00:29;;;;;;;57.10;35.60;;;25.50;99.90;;;;;;5019985;28;20477;-44
2021/04/01 12:02:59;;;;;;;57.80;37.20;;;25.30;99.90;;;;;;5011419;28;20500;-47
2021/04/01 12:05:28;;;;;;;56.40;37.10;;;24.50;99.90;;;;;;5010679;28;20471;-46
2021/04/01 12:07:55;;;;;;;53.70;37.80;;;25.30;99.90;;;;;;5011181;28;20464;-46
2021/04/01 12:10:23;;;;;;;56.47;37.30;;;25.60;99.90;;;;;;5000438;28;20460;-50
2021/04/01 12:12:52;;;;;;;58.17;37.20;;;25.50;99.90;;;;;;5006836;28;20456;-52
2021/04/01 12:15:29;;;;;;;49.00;34.07;;;24.80;99.90;;;;;;4999515;28;20508;-50
2021/04/01 12:17:56;;;;;;;48.73;34.57;;;25.30;99.90;;;;;;5015322;28;20471;-46
2021/04/01 12:20:25;;;;;;;58.00;39.60;;;25.20;99.90;;;;;;5019145;28;20486;-44
2021/04/01 12:22:54;;;;;;;54.00;36.27;;;25.10;99.90;;;;;;5015795;28;21070;-44
2021/04/01 12:25:22;;;;;;;54.53;36.17;;;25.00;99.90;;;;;;5018288;28;20857;-47
2021/04/01 12:27:54;;;;;;;54.13;37.00;;;25.00;99.90;;;;;;5018937;28;20477;-46
2021/04/01 12:30:27;;;;;;;49.43;32.90;;;24.70;99.90;;;;;;5018607;28;20763;-44
2021/04/01 12:33:06;;;;;;;46.13;32.90;;;24.40;99.90;;;;;;4999226;28;20460;-46
2021/04/01 12:35:32;;;;;;;40.87;31.03;;;24.80;99.90;;;;;;5013261;28;20526;-47
2021/04/01 12:38:03;;;;;;;42.70;29.47;;;24.60;99.90;;;;;;5017616;28;20958;-47
2021/04/01 12:40:35;;;;;;;50.20;34.47;;;25.00;99.90;;;;;;5016619;28;20467;-45
2021/04/01 12:43:08;;;;;;;48.77;35.37;;;24.50;99.90;;;;;;5016208;28;20495;-47
2021/04/01 12:45:37;;;;;;;47.17;34.20;;;24.00;99.90;;;;;;5015726;28;20471;-50
2021/04/01 12:48:14;;;;;;;48.50;36.57;;;24.20;99.90;;;;;;5015969;28;20542;-50
2021/04/01 12:50:43;;;;;;;50.80;38.27;;;23.80;99.90;;;;;;5013336;28;20529;-46
2021/04/01 12:53:11;;;;;;;49.30;38.07;;;24.40;99.90;;;;;;5015984;28;20471;-44
2021/04/01 12:55:47;;;;;;;56.10;44.83;;;25.00;99.90;;;;;;5016694;28;20468;-44
2021/04/01 12:58:33;;;;;;;55.90;43.60;;;23.70;99.90;;;;;;5017085;28;20913;-44
2021/04/01 13:01:19;;;;;;;64.13;44.47;;;23.90;99.90;;;;;;5015150;28;20500;-44
2021/04/01 13:03:45;;;;;;;51.17;42.37;;;23.80;99.90;;;;;;5004555;28;20823;-45
2021/04/01 13:06:16;;;;;;;57.63;47.87;;;22.90;99.90;;;;;;5014973;28;20762;-46
2021/04/01 13:08:53;;;;;;;60.73;48.70;;;23.20;99.90;;;;;;5015378;28;20959;-45
2021/04/01 13:11:21;;;;;;;59.83;46.20;;;22.80;99.90;;;;;;5017526;28;20808;-48
2021/04/01 13:13:49;;;;;;;63.00;49.50;;;22.80;99.90;;;;;;5015540;28;20464;-46
2021/04/01 13:16:15;;;;;;;64.93;50.07;;;22.60;99.90;;;;;;5017237;28;20456;-47
2021/04/01 13:18:44;;;;;;;65.00;50.30;;;22.50;99.90;;;;;;5017798;28;20464;-43
2021/04/01 13:24:03;;;;;;;69.47;56.23;;;22.30;99.90;;;;;;5007399;28;20530;-47
2021/04/01 13:26:31;;;;;;;70.57;55.70;;;22.50;99.90;;;;;;5015241;28;20567;-47
2021/04/01 13:28:59;;;;;;;70.73;58.17;;;22.50;99.90;;;;;;5017342;28;20550;-43
2021/04/01 13:31:35;;;;;;;76.30;61.33;;;22.40;99.90;;;;;;5016093;28;20460;-45
2021/04/01 13:34:07;;;;;;;75.17;58.23;;;22.30;99.90;;;;;;5017816;28;20551;-44
2021/04/01 13:36:36;;;;;;;76.83;57.77;;;22.00;99.90;;;;;;5016492;28;20986;-46
2021/04/01 13:39:07;;;;;;;74.40;57.17;;;22.40;99.90;;;;;;5017059;28;20502;-49
2021/04/01 13:41:49;;;;;;;75.03;57.93;;;22.40;99.90;;;;;;5016597;28;20472;-46
2021/04/01 13:44:19;;;;;;;76.27;58.47;;;22.10;99.90;;;;;;5017161;28;20566;-44
2021/04/01 13:46:47;;;;;;;70.17;55.97;;;21.60;99.90;;;;;;5017608;28;20480;-43